createdAt,value
2023-02-11T00:00:41.576Z,5.22
2023-02-11T00:02:46.135Z,5.26
2023-02-11T00:04:49.206Z,5.26
2023-02-11T00:06:50.615Z,5.27
2023-02-11T00:08:52.177Z,5.27
2023-02-11T00:10:55.333Z,5.26
2023-02-11T00:12:56.759Z,5.20
2023-02-11T00:14:58.149Z,5.15
2023-02-11T00:16:59.646Z,5.09
2023-02-11T00:19:02.369Z,5.10
2023-02-11T00:21:18.068Z,5.07
2023-02-11T00:23:19.467Z,5.02
2023-02-11T00:25:20.953Z,4.97
2023-02-11T00:27:22.437Z,4.97
2023-02-11T00:29:23.928Z,4.99
2023-02-11T00:31:25.884Z,5.02
2023-02-11T00:33:27.368Z,4.96
2023-02-11T00:35:28.970Z,4.95
2023-02-11T00:37:30.364Z,4.99
2023-02-11T00:39:31.926Z,4.98
2023-02-11T00:41:33.769Z,5.06
2023-02-11T00:43:35.834Z,5.03
2023-02-11T00:45:37.274Z,5.03
2023-02-11T00:47:38.687Z,5.03
2023-02-11T00:49:40.387Z,5.08
2023-02-11T00:51:42.049Z,5.06
2023-02-11T00:53:43.536Z,5.06
2023-02-11T00:55:44.931Z,5.11
2023-02-11T00:57:46.385Z,5.12
2023-02-11T00:59:47.830Z,5.13
2023-02-11T01:01:49.290Z,5.16
2023-02-11T01:03:51.058Z,5.14
2023-02-11T01:05:53.027Z,5.15
2023-02-11T01:07:54.512Z,5.18
2023-02-11T01:09:56.279Z,5.19
2023-02-11T01:11:57.670Z,5.20
2023-02-11T01:13:59.113Z,5.21
2023-02-11T01:16:01.011Z,5.19
2023-02-11T01:18:02.432Z,5.22
2023-02-11T01:20:07.966Z,5.25
2023-02-11T01:22:09.463Z,5.27
2023-02-11T01:24:10.831Z,5.26
2023-02-11T01:26:12.463Z,5.26
2023-02-11T01:28:23.367Z,5.26
2023-02-11T01:30:24.793Z,5.27
2023-02-11T01:32:26.271Z,5.28
2023-02-11T01:34:28.417Z,5.30
2023-02-11T01:36:29.847Z,5.31
2023-02-11T01:38:32.364Z,5.32
2023-02-11T01:40:34.289Z,5.31
2023-02-11T01:42:35.770Z,5.32
2023-02-11T01:44:40.010Z,5.32
2023-02-11T01:46:41.535Z,5.32
2023-02-11T01:48:50.651Z,5.34
2023-02-11T01:50:58.840Z,5.31
2023-02-11T01:53:20.711Z,5.32
2023-02-11T01:55:41.129Z,5.35
2023-02-11T01:57:47.271Z,5.33
2023-02-11T01:59:51.649Z,5.35
2023-02-11T02:01:58.463Z,5.35
2023-02-11T02:04:03.159Z,5.35
2023-02-11T02:06:10.903Z,5.35
2023-02-11T02:08:40.836Z,5.33
2023-02-11T02:10:46.134Z,5.34
2023-02-11T02:12:47.662Z,5.34
2023-02-11T02:14:49.065Z,5.37
2023-02-11T02:16:50.532Z,5.36
2023-02-11T02:19:39.456Z,5.36
2023-02-11T02:21:59.365Z,5.34
2023-02-11T02:24:15.927Z,5.34
2023-02-11T02:27:02.006Z,5.37
2023-02-11T02:29:23.262Z,5.34
2023-02-11T02:31:50.798Z,5.30
2023-02-11T02:34:11.388Z,5.32
2023-02-11T02:36:22.424Z,5.33
2023-02-11T02:38:30.370Z,5.36
2023-02-11T02:40:54.514Z,5.35
2023-02-11T02:42:57.731Z,5.38
2023-02-11T02:44:59.225Z,5.34
2023-02-11T02:47:00.685Z,5.33
2023-02-11T02:49:06.189Z,5.35
2023-02-11T02:51:57.845Z,5.32
2023-02-11T02:54:23.422Z,5.35
2023-02-11T02:56:28.884Z,5.35
2023-02-11T02:58:47.479Z,5.37
2023-02-11T03:01:21.396Z,5.35
2023-02-11T03:03:48.549Z,5.31
2023-02-11T03:06:00.036Z,5.35
2023-02-11T03:08:13.805Z,5.33
2023-02-11T03:10:18.883Z,5.31
2023-02-11T03:12:22.132Z,5.30
2023-02-11T03:14:26.754Z,5.33
2023-02-11T03:16:30.097Z,5.33
2023-02-11T03:18:35.218Z,5.34
2023-02-11T03:20:41.864Z,5.33
2023-02-11T03:22:55.604Z,5.32
2023-02-11T03:24:57.158Z,5.30
2023-02-11T03:27:04.693Z,5.32
2023-02-11T03:29:33.314Z,5.32
2023-02-11T03:31:47.640Z,5.30
2023-02-11T03:34:08.741Z,5.32
2023-02-11T03:36:15.795Z,5.30
2023-02-11T03:38:26.239Z,5.29
2023-02-11T03:40:32.499Z,5.29
2023-02-11T03:42:47.953Z,5.30
2023-02-11T03:44:55.030Z,5.29
2023-02-11T03:46:56.517Z,5.30
2023-02-11T03:49:04.974Z,5.29
2023-02-11T03:51:09.485Z,5.27
2023-02-11T03:53:13.008Z,5.27
2023-02-11T03:55:18.365Z,5.28
2023-02-11T03:57:19.823Z,5.26
2023-02-11T03:59:21.426Z,5.24
2023-02-11T04:01:22.954Z,5.27
2023-02-11T04:03:24.394Z,5.26
2023-02-11T04:05:25.894Z,5.25
2023-02-11T04:07:27.543Z,5.22
2023-02-11T04:09:28.887Z,5.26
2023-02-11T04:11:30.319Z,5.25
2023-02-11T04:13:31.756Z,5.21
2023-02-11T04:15:33.280Z,5.23
2023-02-11T04:17:34.840Z,5.18
2023-02-11T04:19:36.357Z,5.16
2023-02-11T04:21:37.743Z,5.18
2023-02-11T04:23:39.126Z,5.16
2023-02-11T04:25:40.515Z,5.12
2023-02-11T04:27:41.985Z,5.12
2023-02-11T04:29:43.372Z,5.13
2023-02-11T04:31:45.020Z,5.13
2023-02-11T04:33:46.436Z,5.13
2023-02-11T04:35:48.326Z,5.10
2023-02-11T04:37:49.847Z,5.08
2023-02-11T04:39:51.259Z,5.03
2023-02-11T04:41:52.609Z,5.05
2023-02-11T04:43:54.009Z,5.07
2023-02-11T04:45:58.855Z,5.06
2023-02-11T04:48:02.757Z,5.04
2023-02-11T04:50:04.885Z,5.04
2023-02-11T04:52:06.318Z,4.99
2023-02-11T04:54:08.481Z,5.04
2023-02-11T04:56:09.885Z,5.01
2023-02-11T04:58:11.221Z,4.94
2023-02-11T05:00:13.435Z,4.96
2023-02-11T05:02:14.850Z,4.94
2023-02-11T05:04:17.212Z,4.99
2023-02-11T05:06:18.764Z,4.93
2023-02-11T05:08:20.117Z,4.96
2023-02-11T05:10:21.601Z,4.96
2023-02-11T05:12:23.085Z,4.93
2023-02-11T05:14:24.468Z,4.95
2023-02-11T05:16:25.985Z,4.96
2023-02-11T05:18:27.401Z,4.95
2023-02-11T05:20:28.841Z,4.89
2023-02-11T05:22:30.387Z,4.87
2023-02-11T05:24:32.446Z,4.93
2023-02-11T05:26:33.887Z,4.93
2023-02-11T05:28:36.130Z,4.90
2023-02-11T05:30:37.587Z,4.93
2023-02-11T05:35:05.572Z,4.90
2023-02-11T05:37:06.989Z,4.91
2023-02-11T05:39:08.465Z,4.89
2023-02-11T05:41:10.855Z,4.89
2023-02-11T05:43:12.229Z,4.91
2023-02-11T05:45:13.645Z,4.86
2023-02-11T05:47:15.024Z,4.88
2023-02-11T05:49:17.454Z,4.90
2023-02-11T05:51:18.908Z,4.92
2023-02-11T05:53:20.348Z,4.90
2023-02-11T05:55:21.740Z,4.88
2023-02-11T05:57:23.262Z,4.93
2023-02-11T05:59:24.717Z,4.91
2023-02-11T06:01:26.574Z,4.91
2023-02-11T06:03:28.177Z,4.93
2023-02-11T06:05:29.680Z,4.90
2023-02-11T06:07:31.086Z,4.90
2023-02-11T06:09:32.451Z,4.92
2023-02-11T06:11:33.847Z,4.91
2023-02-11T06:13:36.176Z,4.90
2023-02-11T06:15:37.644Z,4.92
2023-02-11T06:17:39.107Z,4.89
2023-02-11T06:19:40.533Z,4.91
2023-02-11T06:21:44.289Z,4.93
2023-02-11T06:23:46.002Z,4.90
2023-02-11T06:25:47.410Z,4.93
2023-02-11T06:27:48.813Z,4.95
2023-02-11T06:29:52.330Z,4.90
2023-02-11T06:31:53.774Z,4.94
2023-02-11T06:33:55.236Z,4.94
2023-02-11T06:35:56.599Z,4.95
2023-02-11T06:37:57.992Z,4.97
2023-02-11T06:39:59.382Z,4.94
2023-02-11T06:42:00.739Z,4.91
2023-02-11T06:44:02.110Z,4.92
2023-02-11T06:46:03.626Z,4.96
2023-02-11T06:48:05.129Z,5.00
2023-02-11T06:50:08.308Z,4.97
2023-02-11T06:52:09.697Z,4.97
2023-02-11T06:54:12.489Z,4.99
2023-02-11T06:56:17.272Z,5.00
2023-02-11T06:58:18.623Z,4.97
2023-02-11T07:00:20.042Z,5.00
2023-02-11T07:02:21.559Z,4.98
2023-02-11T07:04:23.055Z,4.97
2023-02-11T07:06:27.898Z,5.02
2023-02-11T07:08:29.456Z,5.03
2023-02-11T07:10:30.856Z,5.02
2023-02-11T07:12:32.592Z,5.02
2023-02-11T07:14:34.015Z,5.02
2023-02-11T07:16:35.511Z,5.02
2023-02-11T07:18:37.179Z,5.03
2023-02-11T07:20:38.929Z,5.06
2023-02-11T07:22:40.296Z,5.06
2023-02-11T07:24:41.720Z,5.07
2023-02-11T07:26:43.158Z,5.06
2023-02-11T07:28:45.079Z,5.05
2023-02-11T07:30:46.517Z,5.06
2023-02-11T07:32:48.848Z,5.09
2023-02-11T07:34:50.222Z,5.10
2023-02-11T07:36:51.698Z,5.11
2023-02-11T07:38:53.093Z,5.08
2023-02-11T07:40:54.490Z,5.11
2023-02-11T07:42:55.844Z,5.12
2023-02-11T07:44:57.273Z,5.15
2023-02-11T07:46:59.513Z,5.13
2023-02-11T07:49:01.147Z,5.16
2023-02-11T07:51:10.052Z,5.13
2023-02-11T07:53:11.442Z,5.16
2023-02-11T07:55:12.878Z,5.17
2023-02-11T07:57:14.228Z,5.19
2023-02-11T07:59:16.038Z,5.20
2023-02-11T08:01:26.371Z,5.23
2023-02-11T08:03:27.910Z,5.18
2023-02-11T08:05:30.323Z,5.22
2023-02-11T08:07:32.259Z,5.23
2023-02-11T08:09:34.627Z,5.25
2023-02-11T08:11:36.360Z,5.25
2023-02-11T08:13:38.546Z,5.26
2023-02-11T08:15:39.935Z,5.26
2023-02-11T08:17:41.327Z,5.29
2023-02-11T08:19:42.968Z,5.31
2023-02-11T08:21:44.880Z,5.32
2023-02-11T08:23:46.976Z,5.30
2023-02-11T08:25:48.368Z,5.30
2023-02-11T08:27:49.845Z,5.35
2023-02-11T08:29:51.351Z,5.34
2023-02-11T08:31:52.843Z,5.38
2023-02-11T08:36:25.846Z,5.37
2023-02-11T08:38:27.295Z,5.39
2023-02-11T08:40:28.730Z,5.42
2023-02-11T08:42:30.247Z,5.45
2023-02-11T08:44:31.637Z,5.45
2023-02-11T08:46:33.205Z,5.43
2023-02-11T08:48:34.981Z,5.44
2023-02-11T08:50:39.099Z,5.46
2023-02-11T08:52:40.567Z,5.49
2023-02-11T08:54:41.928Z,5.50
2023-02-11T08:56:43.785Z,5.51
2023-02-11T08:58:45.920Z,5.53
2023-02-11T09:00:48.447Z,5.55
2023-02-11T09:02:50.121Z,5.59
2023-02-11T09:04:51.500Z,5.60
2023-02-11T09:06:52.886Z,5.63
2023-02-11T09:08:57.190Z,5.66
2023-02-11T09:10:58.773Z,5.68
2023-02-11T09:13:00.163Z,5.66
2023-02-11T09:15:01.794Z,5.67
2023-02-11T09:17:03.207Z,5.69
2023-02-11T09:19:05.336Z,5.73
2023-02-11T09:21:08.803Z,5.76
2023-02-11T09:23:11.113Z,5.80
2023-02-11T09:25:12.526Z,5.79
2023-02-11T09:27:15.809Z,5.81
2023-02-11T09:29:17.195Z,5.81
2023-02-11T09:31:21.959Z,5.85
2023-02-11T09:33:23.501Z,5.85
2023-02-11T09:35:24.936Z,5.83
2023-02-11T09:37:26.416Z,5.92
2023-02-11T09:39:29.184Z,5.93
2023-02-11T09:41:42.534Z,5.99
2023-02-11T09:43:47.946Z,6.03
2023-02-11T09:45:50.171Z,5.97
2023-02-11T09:47:58.534Z,6.07
2023-02-11T09:50:15.693Z,6.09
2023-02-11T09:52:26.138Z,6.08
2023-02-11T09:54:41.223Z,6.06
2023-02-11T09:56:42.626Z,6.06
2023-02-11T09:58:45.060Z,6.12
2023-02-11T10:01:11.069Z,6.05
2023-02-11T10:03:21.475Z,6.10
2023-02-11T10:05:44.529Z,6.17
2023-02-11T10:08:30.536Z,6.06
2023-02-11T10:10:57.130Z,6.18
2023-02-11T10:13:19.800Z,6.19
2023-02-11T10:15:49.809Z,6.15
2023-02-11T10:18:19.321Z,6.25
2023-02-11T10:20:29.605Z,6.24
2023-02-11T10:22:39.331Z,6.29
2023-02-11T10:24:48.447Z,6.33
2023-02-11T10:26:51.888Z,6.33
2023-02-11T10:28:55.896Z,6.35
2023-02-11T10:31:00.519Z,6.39
2023-02-11T10:33:31.355Z,6.44
2023-02-11T10:35:33.098Z,6.44
2023-02-11T10:37:34.472Z,6.47
2023-02-11T10:39:35.840Z,6.44
2023-02-11T10:41:47.489Z,6.44
2023-02-11T10:43:50.395Z,6.48
2023-02-11T10:45:53.553Z,6.50
2023-02-11T10:47:55.352Z,6.52
2023-02-11T10:50:03.230Z,6.59
2023-02-11T10:52:23.678Z,6.62
2023-02-11T10:54:25.045Z,6.69
2023-02-11T10:56:28.234Z,6.65
2023-02-11T10:58:32.567Z,6.67
2023-02-11T11:00:40.512Z,6.62
2023-02-11T11:02:44.448Z,6.67
2023-02-11T11:04:47.452Z,6.67
2023-02-11T11:06:49.016Z,6.67
2023-02-11T11:08:51.781Z,6.72
2023-02-11T11:11:05.586Z,6.64
2023-02-11T11:13:22.943Z,6.77
2023-02-11T11:15:29.575Z,6.80
2023-02-11T11:17:31.097Z,6.81
2023-02-11T11:19:33.107Z,6.83
2023-02-11T11:21:36.566Z,6.86
2023-02-11T11:23:39.726Z,6.91
2023-02-11T11:25:45.879Z,6.81
2023-02-11T11:27:52.925Z,6.86
2023-02-11T11:29:55.935Z,6.84
2023-02-11T11:32:01.288Z,6.80
2023-02-11T11:34:28.455Z,6.77
2023-02-11T11:36:37.560Z,6.75
2023-02-11T11:38:48.988Z,6.89
2023-02-11T11:41:20.781Z,6.95
2023-02-11T11:43:23.454Z,6.84
2023-02-11T11:45:26.861Z,6.86
2023-02-11T11:47:44.068Z,6.94
2023-02-11T11:49:51.493Z,6.96
2023-02-11T11:52:11.801Z,6.97
2023-02-11T11:54:17.555Z,6.89
2023-02-11T11:56:25.080Z,7.03
2023-02-11T11:58:28.954Z,7.08
2023-02-11T12:00:51.182Z,7.12
2023-02-11T12:03:31.708Z,7.07
2023-02-11T12:05:45.312Z,7.11
2023-02-11T12:08:11.194Z,7.12
2023-02-11T12:10:40.045Z,7.04
2023-02-11T12:12:52.877Z,7.01
2023-02-11T12:15:19.046Z,7.07
2023-02-11T12:17:41.612Z,7.06
2023-02-11T12:20:18.634Z,7.12
2023-02-11T12:22:45.052Z,7.06
2023-02-11T12:25:06.207Z,7.08
2023-02-11T12:27:16.715Z,7.07
2023-02-11T12:29:55.374Z,7.08
2023-02-11T12:32:21.310Z,7.09
2023-02-11T12:34:22.547Z,7.11
2023-02-11T12:36:41.934Z,7.08
2023-02-11T12:39:10.305Z,7.09
2023-02-11T12:41:14.650Z,7.05
2023-02-11T12:43:22.180Z,6.99
2023-02-11T12:45:41.957Z,7.08
2023-02-11T12:48:22.648Z,7.06
2023-02-11T12:50:34.202Z,7.06
2023-02-11T12:52:47.168Z,7.07
2023-02-11T12:54:58.080Z,7.06
2023-02-11T12:57:21.567Z,7.02
2023-02-11T13:00:04.987Z,7.00
2023-02-11T13:02:18.282Z,7.01
2023-02-11T13:04:28.799Z,7.00
2023-02-11T13:06:38.662Z,7.05
2023-02-11T13:08:53.952Z,7.00
2023-02-11T13:11:02.455Z,7.07
2023-02-11T13:13:18.418Z,7.14
2023-02-11T13:15:19.844Z,7.06
2023-02-11T13:17:41.318Z,7.06
2023-02-11T13:19:58.111Z,7.08
2023-02-11T13:22:33.555Z,7.12
2023-02-11T13:24:55.762Z,7.09
2023-02-11T13:27:20.518Z,7.00
2023-02-11T13:30:01.209Z,7.02
2023-02-11T13:32:11.621Z,7.06
2023-02-11T13:34:51.730Z,7.15
2023-02-11T13:36:57.599Z,7.17
2023-02-11T13:39:02.415Z,7.09
2023-02-11T13:41:19.349Z,7.16
2023-02-11T13:43:23.543Z,7.16
2023-02-11T13:45:28.934Z,7.18
2023-02-11T13:47:33.475Z,7.19
2023-02-11T13:49:41.487Z,7.17
2023-02-11T13:51:43.216Z,7.19
2023-02-11T13:53:51.438Z,7.19
2023-02-11T13:56:06.202Z,7.21
2023-02-11T13:58:07.508Z,7.18
2023-02-11T14:00:26.933Z,7.21
2023-02-11T14:02:52.858Z,7.19
2023-02-11T14:05:29.794Z,7.12
2023-02-11T14:08:11.305Z,7.21
2023-02-11T14:10:43.628Z,7.22
2023-02-11T14:13:05.386Z,7.19
2023-02-11T14:15:12.794Z,7.24
2023-02-11T14:17:18.857Z,7.25
2023-02-11T14:19:43.529Z,7.25
2023-02-11T14:21:46.695Z,7.21
2023-02-11T14:23:48.815Z,7.19
2023-02-11T14:26:38.018Z,7.27
2023-02-11T14:28:44.689Z,7.28
2023-02-11T14:30:56.486Z,7.28
2023-02-11T14:33:23.699Z,7.25
2023-02-11T14:35:28.065Z,7.17
2023-02-11T14:37:52.165Z,7.23
2023-02-11T14:40:30.468Z,7.18
2023-02-11T14:42:31.947Z,7.24
2023-02-11T14:44:34.829Z,7.24
2023-02-11T14:46:36.560Z,7.22
2023-02-11T14:48:43.107Z,7.32
2023-02-11T14:50:48.312Z,7.38
2023-02-11T14:52:51.063Z,7.35
2023-02-11T14:55:09.070Z,7.49
2023-02-11T14:57:15.867Z,7.55
2023-02-11T14:59:19.969Z,7.58
2023-02-11T15:01:28.521Z,7.58
2023-02-11T15:03:33.164Z,7.63
2023-02-11T15:05:34.791Z,7.59
2023-02-11T15:07:36.179Z,7.61
2023-02-11T15:09:41.715Z,7.61
2023-02-11T15:11:46.668Z,7.59
2023-02-11T15:13:50.301Z,7.64
2023-02-11T15:15:55.677Z,7.65
2023-02-11T15:18:01.249Z,7.61
2023-02-11T15:20:03.190Z,7.65
2023-02-11T15:22:10.519Z,7.63
2023-02-11T15:24:31.258Z,7.63
2023-02-11T15:26:33.080Z,7.64
2023-02-11T15:28:35.514Z,7.62
2023-02-11T15:30:36.906Z,7.65
2023-02-11T15:32:45.065Z,7.62
2023-02-11T15:34:47.563Z,7.65
2023-02-11T15:36:48.972Z,7.62
2023-02-11T15:39:17.984Z,7.62
2023-02-11T15:41:37.947Z,7.59
2023-02-11T15:43:51.000Z,7.60
2023-02-11T15:45:52.331Z,7.59
2023-02-11T15:47:58.079Z,7.57
2023-02-11T15:49:59.822Z,7.54
2023-02-11T15:52:02.713Z,7.54
2023-02-11T15:54:15.140Z,7.52
2023-02-11T15:56:19.235Z,7.53
2023-02-11T15:58:22.696Z,7.49
2023-02-11T16:00:31.501Z,7.51
2023-02-11T16:02:36.419Z,7.48
2023-02-11T16:04:38.044Z,7.45
2023-02-11T16:06:42.255Z,7.45
2023-02-11T16:08:59.797Z,7.43
2023-02-11T16:11:08.496Z,7.41
2023-02-11T16:13:09.830Z,7.42
2023-02-11T16:15:30.695Z,7.39
2023-02-11T16:17:32.136Z,7.39
2023-02-11T16:19:35.873Z,7.38
2023-02-11T16:21:45.234Z,7.36
2023-02-11T16:23:54.202Z,7.33
2023-02-11T16:26:01.905Z,7.34
2023-02-11T16:28:03.518Z,7.33
2023-02-11T16:30:05.955Z,7.31
2023-02-11T16:32:10.413Z,7.27
2023-02-11T16:34:29.861Z,7.29
2023-02-11T16:36:31.209Z,7.25
2023-02-11T16:38:32.603Z,7.25
2023-02-11T16:40:33.968Z,7.22
2023-02-11T16:42:35.387Z,7.22
2023-02-11T16:44:36.798Z,7.20
2023-02-11T16:46:38.622Z,7.21
2023-02-11T16:48:40.115Z,7.16
2023-02-11T16:50:46.507Z,7.14
2023-02-11T16:52:48.357Z,7.10
2023-02-11T16:54:50.058Z,7.10
2023-02-11T16:56:51.488Z,7.11
2023-02-11T16:58:52.913Z,7.07
2023-02-11T17:00:56.888Z,7.05
2023-02-11T17:02:58.350Z,7.05
2023-02-11T17:05:02.437Z,7.05
2023-02-11T17:07:03.845Z,7.02
2023-02-11T17:09:06.676Z,6.96
2023-02-11T17:11:08.071Z,6.98
2023-02-11T17:13:09.469Z,6.97
2023-02-11T17:15:10.932Z,6.97
2023-02-11T17:17:12.872Z,6.97
2023-02-11T17:19:17.084Z,6.94
2023-02-11T17:21:18.554Z,6.95
2023-02-11T17:23:19.952Z,6.90
2023-02-11T17:25:23.359Z,6.90
2023-02-11T17:27:25.085Z,6.89
2023-02-11T17:29:27.073Z,6.88
2023-02-11T17:31:28.500Z,6.90
2023-02-11T17:33:29.900Z,6.90
2023-02-11T17:35:31.288Z,6.88
2023-02-11T17:37:32.820Z,6.89
2023-02-11T17:39:38.711Z,6.82
2023-02-11T17:41:40.567Z,6.83
2023-02-11T17:43:42.606Z,6.85
2023-02-11T17:45:44.087Z,6.85
2023-02-11T17:47:46.041Z,6.81
2023-02-11T17:49:47.381Z,6.82
2023-02-11T17:51:48.783Z,6.84
2023-02-11T17:53:50.444Z,6.83
2023-02-11T17:55:52.081Z,6.83
2023-02-11T17:57:53.680Z,6.82
2023-02-11T17:59:55.025Z,6.79
2023-02-11T18:01:56.406Z,6.78
2023-02-11T18:03:57.874Z,6.79
2023-02-11T18:06:01.613Z,6.75
2023-02-11T18:08:05.413Z,6.77
2023-02-11T18:10:08.320Z,6.80
2023-02-11T18:12:10.651Z,6.79
2023-02-11T18:14:14.042Z,6.80
2023-02-11T18:16:15.816Z,6.78
2023-02-11T18:18:17.400Z,6.76
2023-02-11T18:20:19.781Z,6.76
2023-02-11T18:22:21.184Z,6.75
2023-02-11T18:24:22.652Z,6.72
2023-02-11T18:26:28.139Z,6.73
2023-02-11T18:28:29.663Z,6.76
2023-02-11T18:30:31.220Z,6.75
2023-02-11T18:32:32.675Z,6.78
2023-02-11T18:34:34.105Z,6.76
2023-02-11T18:36:36.376Z,6.78
2023-02-11T18:38:38.149Z,6.77
2023-02-11T18:40:40.652Z,6.79
2023-02-11T18:42:42.738Z,6.79
2023-02-11T18:44:44.272Z,6.74
2023-02-11T18:46:45.656Z,6.74
2023-02-11T18:48:47.073Z,6.77
2023-02-11T18:50:48.735Z,6.72
2023-02-11T18:52:50.115Z,6.76
2023-02-11T18:54:52.273Z,6.75
2023-02-11T18:56:53.696Z,6.72
2023-02-11T18:58:56.488Z,6.74
2023-02-11T19:00:57.955Z,6.77
2023-02-11T19:03:01.316Z,6.80
2023-02-11T19:05:06.311Z,6.80
2023-02-11T19:07:07.719Z,6.79
2023-02-11T19:09:11.204Z,6.77
2023-02-11T19:11:14.481Z,6.77
2023-02-11T19:13:15.900Z,6.81
2023-02-11T19:15:17.300Z,6.79
2023-02-11T19:17:18.726Z,6.81
2023-02-11T19:19:22.194Z,6.79
2023-02-11T19:21:23.579Z,6.80
2023-02-11T19:23:24.935Z,6.83
2023-02-11T19:25:26.803Z,6.80
2023-02-11T19:27:28.204Z,6.81
2023-02-11T19:29:33.263Z,6.82
2023-02-11T19:31:34.951Z,6.81
2023-02-11T19:33:36.875Z,6.83
2023-02-11T19:35:38.276Z,6.83
2023-02-11T19:37:39.814Z,6.81
2023-02-11T19:39:42.673Z,6.84
2023-02-11T19:41:44.335Z,6.83
2023-02-11T19:43:47.713Z,6.82
2023-02-11T19:45:49.203Z,6.84
2023-02-11T19:47:55.290Z,6.83
2023-02-11T19:49:56.703Z,6.80
2023-02-11T19:51:58.394Z,6.82
2023-02-11T19:54:00.396Z,6.81
2023-02-11T19:56:03.029Z,6.81
2023-02-11T19:58:04.472Z,6.80
2023-02-11T20:00:06.774Z,6.82
2023-02-11T20:02:10.230Z,6.84
2023-02-11T20:04:13.124Z,6.84
2023-02-11T20:06:17.576Z,6.84
2023-02-11T20:08:18.978Z,6.83
2023-02-11T20:10:20.323Z,6.85
2023-02-11T20:12:21.753Z,6.85
2023-02-11T20:14:23.390Z,6.82
2023-02-11T20:16:44.662Z,6.81
2023-02-11T20:18:49.122Z,6.81
2023-02-11T20:20:50.535Z,6.83
2023-02-11T20:22:52.420Z,6.83
2023-02-11T20:24:53.858Z,6.84
2023-02-11T20:26:55.863Z,6.86
2023-02-11T20:29:02.100Z,6.84
2023-02-11T20:31:04.904Z,6.87
2023-02-11T20:33:06.473Z,6.84
2023-02-11T20:35:08.585Z,6.86
2023-02-11T20:37:10.370Z,6.88
2023-02-11T20:39:16.941Z,6.88
2023-02-11T20:41:24.669Z,6.88
2023-02-11T20:43:26.042Z,6.88
2023-02-11T20:45:27.437Z,6.88
2023-02-11T20:47:28.808Z,6.86
2023-02-11T20:49:30.451Z,6.90
2023-02-11T20:51:34.236Z,6.89
2023-02-11T20:53:37.731Z,6.90
2023-02-11T20:55:39.714Z,6.89
2023-02-11T20:57:41.121Z,6.89
2023-02-11T20:59:42.609Z,6.86
2023-02-11T21:01:46.778Z,6.88
2023-02-11T21:03:58.880Z,6.89
2023-02-11T21:06:00.795Z,6.91
2023-02-11T21:08:02.216Z,6.90
2023-02-11T21:10:04.241Z,6.91
2023-02-11T21:12:05.986Z,6.91
2023-02-11T21:14:07.687Z,6.93
2023-02-11T21:16:13.365Z,6.93
2023-02-11T21:18:14.799Z,6.93
2023-02-11T21:20:16.315Z,6.93
2023-02-11T21:22:17.699Z,6.92
2023-02-11T21:24:19.144Z,6.93
2023-02-11T21:26:20.606Z,6.93
2023-02-11T21:28:26.372Z,6.92
2023-02-11T21:30:27.813Z,6.91
2023-02-11T21:32:29.424Z,6.93
2023-02-11T21:34:30.814Z,6.94
2023-02-11T21:36:32.349Z,6.94
2023-02-11T21:38:34.670Z,6.94
2023-02-11T21:40:36.024Z,6.99
2023-02-11T21:42:37.439Z,6.97
2023-02-11T21:44:38.899Z,6.98
2023-02-11T21:46:40.601Z,6.96
2023-02-11T21:48:42.488Z,6.99
2023-02-11T21:50:46.558Z,6.99
2023-02-11T21:52:48.001Z,6.97
2023-02-11T21:54:50.438Z,6.96
2023-02-11T21:56:51.852Z,6.98
2023-02-11T21:58:54.715Z,6.97
2023-02-11T22:00:56.185Z,6.99
2023-02-11T22:02:58.651Z,6.97
2023-02-11T22:05:00.875Z,6.98
2023-02-11T22:07:03.411Z,6.99
2023-02-11T22:09:08.298Z,6.98
2023-02-11T22:11:12.228Z,7.00
2023-02-11T22:13:13.635Z,7.02
2023-02-11T22:15:15.041Z,7.02
2023-02-11T22:17:16.515Z,7.02
2023-02-11T22:19:18.764Z,7.00
2023-02-11T22:21:22.703Z,6.96
2023-02-11T22:23:24.195Z,7.00
2023-02-11T22:25:25.596Z,7.00
2023-02-11T22:27:27.016Z,7.00
2023-02-11T22:29:28.441Z,7.04
2023-02-11T22:31:33.043Z,7.04
2023-02-11T22:33:34.532Z,7.05
2023-02-11T22:35:35.902Z,7.05
2023-02-11T22:37:37.393Z,7.05
2023-02-11T22:39:38.793Z,7.05
2023-02-11T22:41:41.562Z,7.05
2023-02-11T22:43:43.864Z,7.05
2023-02-11T22:45:45.258Z,7.05
2023-02-11T22:47:46.640Z,7.00
2023-02-11T22:49:48.135Z,7.02
2023-02-11T22:51:49.525Z,7.06
2023-02-11T22:54:02.139Z,7.06
2023-02-11T22:56:05.655Z,7.06
2023-02-11T22:58:07.187Z,7.05
2023-02-11T23:00:09.766Z,7.05
2023-02-11T23:02:11.284Z,7.05
2023-02-11T23:04:15.536Z,7.04
2023-02-11T23:06:17.380Z,7.02
2023-02-11T23:08:18.775Z,7.02
2023-02-11T23:10:20.326Z,7.03
2023-02-11T23:12:21.716Z,7.00
2023-02-11T23:14:23.375Z,7.17
2023-02-11T23:16:34.271Z,7.13
2023-02-11T23:18:38.148Z,7.11
2023-02-11T23:20:42.131Z,7.07
2023-02-11T23:22:43.512Z,7.06
2023-02-11T23:24:44.898Z,7.06
2023-02-11T23:26:46.319Z,7.01
2023-02-11T23:28:47.849Z,7.04
2023-02-11T23:30:49.273Z,7.04
2023-02-11T23:32:51.690Z,7.04
2023-02-11T23:34:53.091Z,7.05
2023-02-11T23:36:54.750Z,7.05
2023-02-11T23:38:56.342Z,7.06
2023-02-11T23:40:57.721Z,6.98
2023-02-11T23:42:59.132Z,7.00
2023-02-11T23:45:01.404Z,6.96
2023-02-11T23:47:02.797Z,6.94
2023-02-11T23:49:04.406Z,6.99
2023-02-11T23:51:06.600Z,7.01
2023-02-11T23:53:08.000Z,6.99
2023-02-11T23:55:09.792Z,6.97
2023-02-11T23:57:11.167Z,6.96
2023-02-11T23:59:13.004Z,7.00
